Time;durP1;ratioP1;P1;durP2;ratioP2;P2;SDS_P1;SDS_P2;PMS_P1;PMS_P2;Temp;Humidity;BMP_temperature;BMP_pressure;BME280_temperature;BME280_humidity;BME280_pressure;Samples;Min_cycle;Max_cycle;Signal;HPM_P1;HPM_P2
2021/11/21 00:01:24;;;;;;;8.23;4.33;;;;;;;7.65;100.00;100312.25;7397530;19;20923;-45
2021/11/21 00:03:56;;;;;;;8.00;5.57;;;;;;;7.66;100.00;100303.75;7393074;19;20445;-45
2021/11/21 00:06:27;;;;;;;15.03;5.87;;;;;;;7.66;100.00;100308.88;7397667;19;20394;-44
2021/11/21 00:08:57;;;;;;;9.57;5.97;;;;;;;7.70;100.00;100311.66;7393869;19;20478;-46
2021/11/21 00:11:26;;;;;;;9.40;5.10;;;;;;;7.66;100.00;100302.06;7397610;19;20381;-44
2021/11/21 00:13:56;;;;;;;9.20;5.20;;;;;;;7.69;100.00;100303.88;7393453;19;20427;-46
2021/11/21 00:16:25;;;;;;;19.83;6.23;;;;;;;7.69;100.00;100291.94;7397323;19;20725;-45
2021/11/21 00:18:57;;;;;;;4.20;3.00;;;;;;;7.62;100.00;100297.59;7394344;19;20404;-50
2021/11/21 00:21:27;;;;;;;8.70;5.67;;;;;;;7.64;100.00;100283.13;7402982;19;20457;-46
2021/11/21 00:23:57;;;;;;;5.90;3.80;;;;;;;7.60;100.00;100276.13;7399939;19;20451;-45
2021/11/21 00:26:26;;;;;;;11.20;4.23;;;;;;;7.60;100.00;100275.22;7404396;19;20444;-49
2021/11/21 00:28:56;;;;;;;10.90;5.20;;;;;;;7.58;100.00;100275.13;7400926;19;20419;-45
2021/11/21 00:31:25;;;;;;;8.13;5.23;;;;;;;7.60;100.00;100270.09;7403986;19;20896;-46
2021/11/21 00:33:57;;;;;;;17.33;5.70;;;;;;;7.61;100.00;100259.00;7399734;19;20418;-48
2021/11/21 00:36:27;;;;;;;15.93;6.50;;;;;;;7.61;100.00;100254.75;7403950;19;20445;-46
2021/11/21 00:38:56;;;;;;;7.97;4.10;;;;;;;7.59;100.00;100251.22;7401730;19;20421;-46
2021/11/21 00:41:26;;;;;;;8.57;4.03;;;;;;;7.60;100.00;100252.09;7406057;19;20481;-47
2021/11/21 00:43:55;;;;;;;17.00;5.90;;;;;;;7.64;100.00;100242.03;7399283;19;20487;-47
2021/11/21 00:46:26;;;;;;;9.13;4.60;;;;;;;7.63;100.00;100247.13;7403618;19;20662;-46
2021/11/21 00:48:59;;;;;;;10.70;5.37;;;;;;;7.66;100.00;100243.00;7400606;19;20434;-44
2021/11/21 00:51:28;;;;;;;9.33;4.40;;;;;;;7.64;100.00;100231.78;7403697;19;20443;-47
2021/11/21 00:54:06;;;;;;;9.53;5.00;;;;;;;7.64;100.00;100239.47;7399049;19;20715;-46
2021/11/21 00:56:35;;;;;;;8.40;4.80;;;;;;;7.64;100.00;100236.91;7403489;19;20509;-46
2021/11/21 00:59:05;;;;;;;9.43;4.53;;;;;;;7.64;100.00;100234.34;7400179;19;20422;-43
2021/11/21 01:01:34;;;;;;;6.33;4.10;;;;;;;7.65;100.00;100225.81;7402925;19;20452;-47
2021/11/21 01:04:07;;;;;;;7.10;3.80;;;;;;;7.66;100.00;100231.84;7398237;19;20876;-47
2021/11/21 01:06:36;;;;;;;7.40;3.53;;;;;;;7.67;100.00;100231.94;7402873;19;20430;-48
2021/11/21 01:09:06;;;;;;;7.23;4.00;;;;;;;7.69;100.00;100216.56;7397642;19;20922;-47
2021/11/21 01:11:36;;;;;;;8.83;4.83;;;;;;;7.72;100.00;100210.69;7402523;19;20405;-44
2021/11/21 01:14:05;;;;;;;8.20;3.50;;;;;;;7.67;100.00;100213.94;7398043;19;20436;-45
2021/11/21 01:16:35;;;;;;;10.20;5.10;;;;;;;7.70;100.00;100202.94;7402570;19;20407;-46
2021/11/21 01:19:07;;;;;;;8.97;4.10;;;;;;;7.70;100.00;100205.50;7399465;19;20434;-47
2021/11/21 01:21:37;;;;;;;7.40;3.47;;;;;;;7.68;100.00;100205.44;7406636;19;20391;-48
2021/11/21 01:24:07;;;;;;;8.63;3.60;;;;;;;7.69;100.00;100193.44;7397770;19;20429;-48
2021/11/21 01:26:36;;;;;;;9.93;4.20;;;;;;;7.70;100.00;100198.66;7402063;19;20391;-50
2021/11/21 01:29:06;;;;;;;21.33;3.97;;;;;;;7.69;100.00;100198.59;7397338;19;20513;-46
2021/11/21 01:31:35;;;;;;;7.93;4.07;;;;;;;7.70;100.00;100193.53;7400988;19;20455;-46
2021/11/21 01:34:08;;;;;;;7.10;4.27;;;;;;;7.69;100.00;100194.34;7396977;19;20439;-46
2021/11/21 01:36:37;;;;;;;8.33;4.80;;;;;;;7.73;100.00;100197.06;7401957;19;20387;-45
2021/11/21 01:39:07;;;;;;;12.20;3.77;;;;;;;7.69;100.00;100198.59;7397956;19;20418;-45
2021/11/21 01:41:37;;;;;;;8.00;2.83;;;;;;;7.71;100.00;100191.84;7400771;19;20719;-45
2021/11/21 01:44:07;;;;;;;11.33;4.13;;;;;;;7.70;100.00;100185.81;7396651;19;20512;-47
2021/11/21 01:46:38;;;;;;;5.70;3.43;;;;;;;7.73;100.00;100176.53;7401421;19;20409;-43
2021/11/21 01:49:11;;;;;;;7.67;4.50;;;;;;;7.80;100.00;100178.53;7397408;19;20466;-44
2021/11/21 01:51:40;;;;;;;8.17;4.90;;;;;;;7.76;100.00;100176.63;7405795;19;20399;-46
2021/11/21 01:54:10;;;;;;;4.47;2.80;;;;;;;7.70;100.00;100183.25;7397086;19;20433;-46
2021/11/21 01:56:41;;;;;;;8.23;3.40;;;;;;;7.72;100.00;100179.88;7401061;19;20848;-48
2021/11/21 01:59:11;;;;;;;7.83;4.20;;;;;;;7.68;100.00;100184.88;7398197;19;20423;-46
2021/11/21 02:01:40;;;;;;;13.90;3.37;;;;;;;7.61;100.00;100170.03;7404473;19;20402;-49
2021/11/21 02:04:13;;;;;;;8.50;4.60;;;;;;;7.65;100.00;100164.19;7396542;19;20422;-50
2021/11/21 02:06:42;;;;;;;10.73;4.13;;;;;;;7.66;100.00;100157.38;7400889;19;20725;-47
2021/11/21 02:09:12;;;;;;;9.10;4.47;;;;;;;7.67;100.00;100156.56;7396859;19;20443;-49
2021/11/21 02:11:41;;;;;;;11.40;4.87;;;;;;;7.69;100.00;100158.41;7400548;19;20394;-46
2021/11/21 02:14:11;;;;;;;13.33;4.97;;;;;;;7.66;100.00;100158.28;7396135;19;20436;-48
2021/11/21 02:16:41;;;;;;;21.80;5.40;;;;;;;7.65;100.00;100148.78;7397091;19;20413;-48
2021/11/21 02:19:13;;;;;;;8.63;5.47;;;;;;;7.62;100.00;100153.81;7397897;19;20415;-46
2021/11/21 02:21:45;;;;;;;10.73;5.70;;;;;;;7.53;100.00;100148.25;7400078;19;20692;-45
2021/11/21 02:24:14;;;;;;;8.57;4.60;;;;;;;7.46;100.00;100159.06;7395830;19;20426;-47
2021/11/21 02:26:44;;;;;;;9.53;5.23;;;;;;;7.33;100.00;100158.50;7400295;19;20413;-45
2021/11/21 02:29:15;;;;;;;30.57;6.90;;;;;;;7.33;100.00;100161.06;7396062;19;20510;-49
2021/11/21 02:31:44;;;;;;;13.37;7.07;;;;;;;7.29;100.00;100160.06;7400083;19;20400;-51
2021/11/21 02:34:14;;;;;;;13.47;8.00;;;;;;;7.24;100.00;100163.22;7399356;19;20437;-45
2021/11/21 02:36:48;;;;;;;11.97;6.47;;;;;;;7.21;100.00;100147.69;7400157;19;20466;-49
2021/11/21 02:39:17;;;;;;;11.90;7.23;;;;;;;7.20;100.00;100148.50;7397344;19;20430;-50
2021/11/21 02:41:47;;;;;;;16.43;8.33;;;;;;;7.18;100.00;100158.69;7400019;19;20466;-52
2021/11/21 02:44:16;;;;;;;12.87;8.03;;;;;;;7.19;100.00;100157.00;7394004;19;20905;-47
2021/11/21 02:46:46;;;;;;;15.73;8.63;;;;;;;7.21;100.00;100158.84;7398601;19;20386;-46
2021/11/21 02:49:15;;;;;;;16.77;9.10;;;;;;;7.16;100.00;100153.50;7395926;19;20928;-48
2021/11/21 02:51:47;;;;;;;20.93;9.63;;;;;;;7.19;100.00;100152.75;7399318;19;20387;-45
2021/11/21 02:54:17;;;;;;;14.77;8.83;;;;;;;7.23;100.00;100158.91;7395566;19;20516;-46
2021/11/21 02:56:47;;;;;;;20.60;10.13;;;;;;;7.22;100.00;100149.47;7399336;19;20659;-49
2021/11/21 02:59:16;;;;;;;21.20;8.37;;;;;;;7.20;100.00;100140.78;7396483;19;20418;-48
2021/11/21 03:01:45;;;;;;;14.87;7.50;;;;;;;7.22;100.00;100137.50;7398849;19;20402;-52
2021/11/21 03:04:15;;;;;;;11.10;7.73;;;;;;;7.21;100.00;100134.84;7395002;19;20417;-52
2021/11/21 03:06:47;;;;;;;9.70;5.50;;;;;;;7.20;100.00;100125.41;7398989;19;20455;-53
2021/11/21 03:09:22;;;;;;;9.93;6.03;;;;;;;7.22;100.00;100128.94;7395782;19;20513;-49
2021/11/21 03:11:54;;;;;;;7.40;4.80;;;;;;;7.21;100.00;100122.03;7397664;19;20390;-53
2021/11/21 03:14:24;;;;;;;6.93;4.77;;;;;;;7.21;100.00;100135.75;7394763;19;20423;-51
2021/11/21 03:16:53;;;;;;;8.07;5.07;;;;;;;7.23;100.00;100117.84;7399440;19;20863;-50
2021/11/21 03:19:23;;;;;;;7.60;4.73;;;;;;;7.20;100.00;100122.84;7395730;19;20490;-52
2021/11/21 03:21:55;;;;;;;11.37;6.13;;;;;;;7.19;100.00;100121.09;7398220;19;20459;-49
2021/11/21 03:24:25;;;;;;;7.10;4.40;;;;;;;7.20;100.00;100116.03;7396249;19;20873;-48
2021/11/21 03:26:54;;;;;;;9.43;5.10;;;;;;;7.22;100.00;100121.25;7398469;19;20403;-50
2021/11/21 03:29:24;;;;;;;9.37;5.93;;;;;;;7.20;100.00;100112.56;7394449;19;20694;-47
2021/11/21 03:31:53;;;;;;;5.27;3.83;;;;;;;7.18;100.00;100115.06;7398581;19;20390;-46
2021/11/21 03:34:23;;;;;;;10.03;5.00;;;;;;;7.22;100.00;100105.84;7393432;19;20495;-53
2021/11/21 03:36:55;;;;;;;8.53;5.30;;;;;;;7.27;100.00;100094.97;7398078;19;20395;-47
2021/11/21 03:39:25;;;;;;;6.63;4.10;;;;;;;7.23;100.00;100097.34;7394989;19;20417;-47
2021/11/21 03:41:54;;;;;;;8.40;5.40;;;;;;;7.27;100.00;100099.19;7399672;19;20974;-52
2021/11/21 03:44:24;;;;;;;11.83;5.40;;;;;;;7.27;100.00;100099.19;7390686;19;20419;-45
2021/11/21 03:46:53;;;;;;;9.50;5.10;;;;;;;7.29;100.00;100102.75;7398115;19;20711;-47
2021/11/21 03:49:23;;;;;;;10.27;6.00;;;;;;;7.34;100.00;100100.38;7394080;19;20493;-44
2021/11/21 03:51:55;;;;;;;12.20;5.97;;;;;;;7.30;100.00;100105.34;7401887;19;20461;-46
2021/11/21 03:54:24;;;;;;;9.33;6.37;;;;;;;7.33;100.00;100103.75;7395247;19;20436;-51
2021/11/21 03:56:54;;;;;;;10.30;5.87;;;;;;;7.25;100.00;100100.84;7405279;19;20390;-47
2021/11/21 03:59:24;;;;;;;7.50;4.60;;;;;;;7.22;100.00;100099.00;7406248;19;20460;-44
2021/11/21 04:01:54;;;;;;;8.47;5.00;;;;;;;7.26;100.00;100090.66;7405070;19;20387;-45
2021/11/21 04:04:24;;;;;;;8.70;5.80;;;;;;;7.30;100.00;100096.78;7399707;19;20417;-46
2021/11/21 04:06:56;;;;;;;9.93;5.30;;;;;;;7.29;100.00;100102.75;7404567;19;20392;-49
2021/11/21 04:09:26;;;;;;;8.67;5.60;;;;;;;7.33;100.00;100099.47;7401236;19;20460;-47
2021/11/21 04:11:55;;;;;;;11.00;6.57;;;;;;;7.37;100.00;100093.69;7403981;19;20381;-46
2021/11/21 04:14:25;;;;;;;12.03;6.83;;;;;;;7.40;100.00;100091.22;7399479;19;20696;-47
2021/11/21 04:16:54;;;;;;;8.10;5.70;;;;;;;7.43;100.00;100101.66;7404306;19;20459;-45
2021/11/21 04:19:24;;;;;;;12.93;7.07;;;;;;;7.45;100.00;100088.00;7400554;19;20482;-44
2021/11/21 04:21:56;;;;;;;12.40;6.33;;;;;;;7.41;100.00;100095.59;7404469;19;20717;-45
2021/11/21 04:24:26;;;;;;;8.77;5.90;;;;;;;7.42;100.00;100094.75;7402214;19;20460;-51
2021/11/21 04:26:55;;;;;;;11.40;5.60;;;;;;;7.40;100.00;100088.66;7404203;19;20463;-48
2021/11/21 04:29:26;;;;;;;10.87;6.73;;;;;;;7.43;100.00;100093.06;7399976;19;20414;-47
2021/11/21 04:31:56;;;;;;;9.43;5.70;;;;;;;7.43;100.00;100091.38;7406396;19;20893;-46
2021/11/21 04:34:26;;;;;;;10.07;6.10;;;;;;;7.43;100.00;100083.69;7399218;19;20417;-51
2021/11/21 04:36:59;;;;;;;10.30;5.63;;;;;;;7.41;100.00;100085.31;7404090;19;20392;-46
2021/11/21 04:39:29;;;;;;;11.50;6.23;;;;;;;7.48;100.00;100076.19;7400402;19;20845;-45
2021/11/21 04:41:59;;;;;;;15.80;6.10;;;;;;;7.44;100.00;100084.56;7404063;19;20443;-45
2021/11/21 04:44:29;;;;;;;12.63;5.33;;;;;;;7.45;100.00;100082.88;7400169;19;20932;-48
2021/11/21 04:46:59;;;;;;;11.13;5.10;;;;;;;7.43;100.00;100082.78;7403654;19;20857;-46
2021/11/21 04:49:28;;;;;;;10.03;5.50;;;;;;;7.39;100.00;100080.94;7400745;19;20426;-45
2021/11/21 04:52:00;;;;;;;10.77;5.30;;;;;;;7.35;100.00;100077.34;7403652;19;20398;-45
2021/11/21 04:54:30;;;;;;;9.57;4.00;;;;;;;7.43;100.00;100075.09;7391930;19;20490;-47
2021/11/21 04:57:00;;;;;;;10.10;4.57;;;;;;;7.43;100.00;100075.97;7403544;19;20858;-44
2021/11/21 04:59:29;;;;;;;10.40;4.03;;;;;;;7.36;100.00;100073.97;7400845;19;20424;-45
2021/11/21 05:02:00;;;;;;;10.23;4.17;;;;;;;7.36;100.00;100071.41;7403021;19;20409;-45
2021/11/21 05:04:30;;;;;;;9.60;3.73;;;;;;;7.30;100.00;100076.25;7398139;19;20443;-48
2021/11/21 05:07:02;;;;;;;6.73;3.73;;;;;;;7.29;100.00;100077.94;7401378;19;20399;-44
2021/11/21 05:09:32;;;;;;;10.07;3.77;;;;;;;7.24;100.00;100079.41;7399668;19;20419;-48
2021/11/21 05:12:01;;;;;;;7.57;3.03;;;;;;;7.25;100.00;100081.19;7402863;19;20387;-44
2021/11/21 05:14:31;;;;;;;6.00;2.90;;;;;;;7.24;100.00;100084.53;7398397;19;20739;-47
2021/11/21 05:17:01;;;;;;;4.27;2.23;;;;;;;7.18;100.00;100078.28;7402864;19;20450;-51
2021/11/21 05:19:30;;;;;;;4.63;2.03;;;;;;;7.20;100.00;100076.66;7400115;19;20422;-53
2021/11/21 05:22:03;;;;;;;3.80;2.50;;;;;;;7.15;100.00;100069.66;7402556;19;20391;-48
2021/11/21 05:24:33;;;;;;;3.37;2.33;;;;;;;7.11;100.00;100069.41;7400020;19;20430;-45
2021/11/21 05:27:03;;;;;;;5.90;2.53;;;;;;;7.15;100.00;100071.31;7403258;19;20470;-46
2021/11/21 05:29:35;;;;;;;4.03;2.40;;;;;;;7.13;100.00;100071.25;7400885;19;20426;-45
2021/11/21 05:32:05;;;;;;;5.90;2.67;;;;;;;7.19;100.00;100070.66;7400134;19;20646;-46
2021/11/21 05:34:36;;;;;;;9.60;2.63;;;;;;;7.11;100.00;100065.19;7403420;19;20439;-47
2021/11/21 05:37:08;;;;;;;6.17;2.27;;;;;;;7.08;100.00;100070.16;7401869;19;20446;-49
2021/11/21 05:39:37;;;;;;;10.37;2.90;;;;;;;7.09;100.00;100074.50;7400715;19;20415;-51
2021/11/21 05:42:08;;;;;;;11.97;3.00;;;;;;;7.13;100.00;100067.81;7401988;19;20471;-51
2021/11/21 05:44:37;;;;;;;6.00;3.37;;;;;;;7.13;100.00;100073.81;7400611;19;20497;-51
2021/11/21 05:47:07;;;;;;;7.30;3.10;;;;;;;7.15;100.00;100076.44;7401548;19;20391;-46
2021/11/21 05:49:36;;;;;;;8.33;3.03;;;;;;;7.12;100.00;100081.44;7400609;19;20425;-51
2021/11/21 05:52:09;;;;;;;9.93;3.10;;;;;;;7.11;100.00;100080.56;7400073;19;20665;-46
2021/11/21 05:54:38;;;;;;;9.40;3.50;;;;;;;7.14;100.00;100080.69;7405126;19;20457;-50
2021/11/21 05:57:08;;;;;;;12.00;3.47;;;;;;;7.18;100.00;100080.84;7399354;19;20714;-49
2021/11/21 05:59:39;;;;;;;9.00;3.97;;;;;;;7.14;100.00;100073.00;7400183;19;20393;-48
2021/11/21 06:02:09;;;;;;;10.20;3.67;;;;;;;7.19;100.00;100074.91;7398714;19;20481;-49
2021/11/21 06:04:39;;;;;;;9.37;3.33;;;;;;;7.14;100.00;100073.00;7400860;19;20390;-49
2021/11/21 06:07:11;;;;;;;7.47;3.20;;;;;;;7.15;100.00;100074.78;7400525;19;20458;-48
2021/11/21 06:09:40;;;;;;;16.93;4.10;;;;;;;7.20;100.00;100071.53;7400025;19;20395;-53
2021/11/21 06:12:10;;;;;;;13.73;4.37;;;;;;;7.21;100.00;100073.28;7397036;19;20849;-51
2021/11/21 06:14:40;;;;;;;13.17;3.90;;;;;;;7.26;100.00;100069.22;7400238;19;20380;-49
2021/11/21 06:17:09;;;;;;;17.17;3.97;;;;;;;7.16;100.00;100070.50;7398091;19;20393;-48
2021/11/21 06:19:39;;;;;;;12.27;3.73;;;;;;;7.20;100.00;100074.09;7397923;19;20399;-53
2021/11/21 06:22:11;;;;;;;11.13;4.00;;;;;;;7.19;100.00;100072.34;7398270;19;20393;-51
2021/11/21 06:24:41;;;;;;;12.57;3.40;;;;;;;7.22;100.00;100069.91;7404244;19;20647;-50
2021/11/21 06:27:10;;;;;;;10.73;3.70;;;;;;;7.22;100.00;100075.06;7398484;19;20391;-54
2021/11/21 06:29:40;;;;;;;12.20;3.20;;;;;;;7.19;100.00;100075.78;7399127;19;20457;-52
2021/11/21 06:32:10;;;;;;;20.17;3.90;;;;;;;7.15;100.00;100082.47;7397005;19;20382;-52
2021/11/21 06:34:39;;;;;;;15.77;3.37;;;;;;;7.16;100.00;100073.97;7403856;19;20478;-52
2021/11/21 06:37:12;;;;;;;12.47;3.63;;;;;;;7.18;100.00;100070.59;7397939;19;20685;-53
2021/11/21 06:39:44;;;;;;;21.20;10.70;;;;;;;7.19;100.00;100067.19;7399214;19;20467;-52
2021/11/21 06:42:15;;;;;;;16.97;3.83;;;;;;;7.15;100.00;100072.22;7398346;19;20385;-53
2021/11/21 06:44:44;;;;;;;16.53;3.00;;;;;;;7.08;100.00;100072.72;7399504;19;20389;-51
2021/11/21 06:47:15;;;;;;;11.40;2.77;;;;;;;7.02;100.00;100077.56;7397783;19;20856;-44
2021/11/21 06:49:45;;;;;;;12.73;3.80;;;;;;;7.00;100.00;100074.06;7398799;19;20398;-45
2021/11/21 06:52:18;;;;;;;14.93;2.70;;;;;;;6.98;100.00;100076.56;7396725;19;20454;-46
2021/11/21 06:54:48;;;;;;;10.83;3.83;;;;;;;7.01;100.00;100080.94;7399081;19;20401;-51
2021/11/21 06:57:19;;;;;;;15.80;3.30;;;;;;;7.01;100.00;100078.38;7397655;19;20439;-47
2021/11/21 06:59:48;;;;;;;16.90;3.27;;;;;;;6.99;100.00;100078.31;7398194;19;20402;-46
2021/11/21 07:02:18;;;;;;;10.57;2.60;;;;;;;7.02;100.00;100077.56;7397302;19;20392;-46
2021/11/21 07:04:49;;;;;;;9.53;2.70;;;;;;;7.01;100.00;100076.72;7398962;19;20867;-47
2021/11/21 07:07:23;;;;;;;10.97;3.10;;;;;;;6.97;100.00;100077.38;7397538;19;20460;-46
2021/11/21 07:09:53;;;;;;;12.20;3.10;;;;;;;6.94;100.00;100084.06;7399259;19;20400;-46
2021/11/21 07:12:22;;;;;;;14.57;3.10;;;;;;;6.91;100.00;100083.94;7396051;19;20846;-46
2021/11/21 07:15:11;;;;;;;13.43;4.07;;;;;;;6.88;100.00;100090.66;7398977;19;20405;-46
2021/11/21 07:17:41;;;;;;;19.27;4.00;;;;;;;6.87;100.00;100088.91;7396980;19;20397;-48
2021/11/21 07:20:15;;;;;;;13.73;3.70;;;;;;;6.84;100.00;100088.78;7398196;19;20401;-45
2021/11/21 07:22:48;;;;;;;13.07;2.53;;;;;;;6.79;100.00;100092.81;7395818;19;20412;-45
2021/11/21 07:25:19;;;;;;;20.13;3.60;;;;;;;6.81;100.00;100093.75;7400955;19;20495;-47
2021/11/21 07:27:49;;;;;;;9.30;3.27;;;;;;;6.73;100.00;100101.06;7396387;19;20516;-47
2021/11/21 07:30:20;;;;;;;17.67;3.50;;;;;;;6.72;100.00;100101.88;7402539;19;20896;-45
2021/11/21 07:32:51;;;;;;;12.90;3.90;;;;;;;6.72;100.00;100103.59;7401975;19;20429;-47
2021/11/21 07:35:22;;;;;;;12.13;3.63;;;;;;;6.70;100.00;100100.06;7406139;19;20393;-45
2021/11/21 07:37:54;;;;;;;14.87;3.97;;;;;;;6.70;100.00;100106.06;7403768;19;20434;-46
2021/11/21 07:40:23;;;;;;;18.77;3.77;;;;;;;6.69;100.00;100104.31;7405477;19;20465;-46
2021/11/21 07:42:55;;;;;;;11.00;3.90;;;;;;;6.67;100.00;100115.31;7402454;19;20435;-48
2021/11/21 07:45:25;;;;;;;16.53;4.00;;;;;;;6.66;100.00;100108.44;7405770;19;20478;-45
2021/11/21 07:47:55;;;;;;;16.53;3.70;;;;;;;6.60;100.00;100114.13;7402957;19;20487;-46
2021/11/21 07:50:24;;;;;;;13.47;3.47;;;;;;;6.62;100.00;100113.38;7404774;19;20390;-46
2021/11/21 07:52:56;;;;;;;8.30;3.20;;;;;;;6.56;100.00;100109.69;7400318;19;20432;-46
2021/11/21 07:55:26;;;;;;;18.60;4.03;;;;;;;6.59;100.00;100105.56;7405306;19;20437;-47
2021/11/21 07:57:55;;;;;;;17.93;2.97;;;;;;;6.58;100.00;100119.19;7403590;19;20513;-50
2021/11/21 08:00:25;;;;;;;17.67;3.30;;;;;;;6.56;100.00;100128.47;7404834;19;20453;-47
2021/11/21 08:02:55;;;;;;;21.20;3.60;;;;;;;6.57;100.00;100125.09;7402654;19;20484;-48
2021/11/21 08:05:25;;;;;;;20.83;4.10;;;;;;;6.55;100.00;100126.72;7405099;19;20672;-52
2021/11/21 08:07:57;;;;;;;13.87;3.80;;;;;;;6.56;100.00;100128.47;7401803;19;20413;-46
2021/11/21 08:10:26;;;;;;;18.63;4.43;;;;;;;6.54;100.00;100134.34;7404519;19;20410;-48
2021/11/21 08:12:56;;;;;;;19.17;4.20;;;;;;;6.54;100.00;100130.09;7402537;19;20506;-46
2021/11/21 08:15:25;;;;;;;12.37;4.87;;;;;;;6.52;100.00;100124.03;7404708;19;20400;-46
2021/11/21 08:17:55;;;;;;;18.20;5.20;;;;;;;6.56;100.00;100132.75;7402284;19;20425;-47
2021/11/21 08:20:26;;;;;;;13.70;4.53;;;;;;;6.57;100.00;100129.38;7403836;19;20926;-45
2021/11/21 08:22:58;;;;;;;19.13;5.20;;;;;;;6.56;100.00;100132.75;7400782;19;20422;-51
2021/11/21 08:25:28;;;;;;;16.37;4.37;;;;;;;6.56;100.00;100132.75;7404812;19;20391;-45
2021/11/21 08:27:57;;;;;;;13.07;4.23;;;;;;;6.51;100.00;100129.94;7401959;19;20770;-47
2021/11/21 08:30:29;;;;;;;17.67;5.13;;;;;;;6.57;100.00;100125.09;7403793;19;20477;-49
2021/11/21 08:32:58;;;;;;;19.47;5.00;;;;;;;6.69;100.00;100124.81;7399860;19;20433;-44
2021/11/21 08:35:28;;;;;;;16.47;4.83;;;;;;;6.60;100.00;100130.41;7403999;19;20386;-45
2021/11/21 08:38:00;;;;;;;18.13;5.33;;;;;;;6.62;100.00;100136.47;7401895;19;20420;-49
2021/11/21 08:40:30;;;;;;;16.47;5.73;;;;;;;6.73;100.00;100136.09;7402267;19;20652;-44
2021/11/21 08:43:02;;;;;;;7.87;4.00;;;;;;;6.76;100.00;100131.09;7391970;19;20461;-50
2021/11/21 08:45:32;;;;;;;16.50;6.20;;;;;;;6.81;100.00;100129.66;7403618;19;20394;-47
2021/11/21 08:48:02;;;;;;;26.77;12.10;;;;;;;6.89;100.00;100127.44;7401853;19;20878;-50
2021/11/21 08:50:32;;;;;;;14.93;3.90;;;;;;;6.93;100.00;100133.59;7403135;19;20395;-46
2021/11/21 08:53:05;;;;;;;13.07;3.30;;;;;;;6.93;100.00;100133.59;7399821;19;20788;-45
2021/11/21 08:55:34;;;;;;;11.90;5.00;;;;;;;6.97;100.00;100136.38;7403433;19;20415;-48
2021/11/21 08:58:05;;;;;;;17.60;3.93;;;;;;;6.97;100.00;100132.94;7401348;19;20416;-46
2021/11/21 09:00:35;;;;;;;18.47;3.87;;;;;;;6.99;100.00;100131.31;7403045;19;20401;-48
2021/11/21 09:03:04;;;;;;;17.37;3.00;;;;;;;6.86;100.00;100135.88;7399954;19;20454;-45
2021/11/21 09:05:34;;;;;;;17.83;3.03;;;;;;;6.87;100.00;100134.19;7403118;19;20406;-47
2021/11/21 09:08:16;;;;;;;10.87;2.53;;;;;;;6.91;100.00;100140.34;7401030;19;20400;-44
2021/11/21 09:10:46;;;;;;;14.50;3.73;;;;;;;6.98;100.00;100137.25;7402727;19;20847;-45
2021/11/21 09:13:16;;;;;;;10.97;2.30;;;;;;;7.03;100.00;100140.91;7399239;19;20500;-45
2021/11/21 09:15:46;;;;;;;11.30;2.10;;;;;;;7.02;100.00;100141.69;7402749;19;20387;-46
2021/11/21 09:18:15;;;;;;;7.73;2.47;;;;;;;7.15;100.00;100144.06;7394797;19;20401;-45
2021/11/21 09:20:45;;;;;;;11.80;3.40;;;;;;;7.25;100.00;100139.31;7401952;19;20465;-46
2021/11/21 09:23:19;;;;;;;14.50;2.77;;;;;;;7.12;100.00;100146.47;7399467;19;20931;-44
2021/11/21 09:25:48;;;;;;;14.90;3.50;;;;;;;7.24;100.00;100152.97;7401525;19;20377;-45
2021/11/21 09:28:19;;;;;;;6.10;2.20;;;;;;;7.38;100.00;100148.47;7399417;19;20405;-45
2021/11/21 09:30:49;;;;;;;10.17;2.73;;;;;;;7.28;100.00;100152.31;7406194;19;20404;-45
2021/11/21 09:33:18;;;;;;;10.53;2.43;;;;;;;7.21;100.00;100157.94;7398800;19;20905;-45
2021/11/21 09:35:48;;;;;;;12.83;3.87;;;;;;;7.39;100.00;100151.09;7402182;19;20410;-51
2021/11/21 09:38:20;;;;;;;13.40;2.47;;;;;;;7.31;100.00;100157.56;7399861;19;20399;-45
2021/11/21 09:40:51;;;;;;;11.37;2.47;;;;;;;7.09;100.00;100150.56;7403425;19;20407;-47
2021/11/21 09:43:20;;;;;;;9.57;1.83;;;;;;;7.01;100.00;100160.47;7400008;19;20470;-51
2021/11/21 09:45:51;;;;;;;8.47;1.60;;;;;;;7.01;100.00;100160.47;7401210;19;20459;-48
2021/11/21 09:48:21;;;;;;;9.43;3.63;;;;;;;7.20;100.00;100158.75;7399372;19;20411;-52
2021/11/21 09:50:50;;;;;;;12.37;2.03;;;;;;;7.21;100.00;100161.41;7400610;19;20405;-51
2021/11/21 09:53:25;;;;;;;8.70;2.87;;;;;;;7.15;100.00;100167.16;7399083;19;20453;-51
2021/11/21 09:55:55;;;;;;;10.40;1.90;;;;;;;7.18;100.00;100170.66;7401944;19;20407;-48
2021/11/21 09:58:28;;;;;;;12.33;1.90;;;;;;;7.19;100.00;100172.41;7398159;19;20425;-51
2021/11/21 10:00:57;;;;;;;10.43;2.03;;;;;;;7.23;100.00;100174.31;7400597;19;20463;-50
2021/11/21 10:03:31;;;;;;;16.60;2.17;;;;;;;7.25;100.00;100164.97;7397525;19;20430;-53
2021/11/21 10:06:06;;;;;;;9.63;1.97;;;;;;;7.36;100.00;100170.59;7402604;19;20404;-51
2021/11/21 10:08:51;;;;;;;12.00;1.73;;;;;;;7.32;100.00;100172.16;7398708;19;20423;-52
2021/11/21 10:11:21;;;;;;;14.50;2.30;;;;;;;7.38;100.00;100175.00;7400822;19;20450;-54
2021/11/21 10:13:54;;;;;;;15.07;3.30;;;;;;;7.48;100.00;100181.41;7399548;19;20517;-45
2021/11/21 10:16:28;;;;;;;12.83;2.47;;;;;;;7.50;100.00;100168.66;7400485;19;20457;-44
2021/11/21 10:19:00;;;;;;;13.67;2.13;;;;;;;7.57;100.00;100174.16;7400648;19;20451;-47
2021/11/21 10:21:32;;;;;;;12.43;2.90;;;;;;;7.63;100.00;100181.22;7400172;19;20925;-49
2021/11/21 10:24:24;;;;;;;16.00;4.27;;;;;;;7.58;100.00;100185.28;7396418;19;20440;-45
2021/11/21 10:27:05;;;;;;;12.63;2.37;;;;;;;7.56;100.00;100180.09;7400459;19;20720;-47
2021/11/21 10:29:37;;;;;;;14.93;2.80;;;;;;;7.78;100.00;100175.91;7397044;19;20447;-50
2021/11/21 10:32:16;;;;;;;18.33;4.13;;;;;;;7.69;100.00;100183.19;7399615;19;20399;-45
2021/11/21 10:34:51;;;;;;;14.53;2.63;;;;;;;7.56;100.00;100184.34;7398054;19;20451;-46
2021/11/21 10:37:21;;;;;;;29.00;10.70;;;;;;;7.59;100.00;100192.16;7398351;19;20397;-47
2021/11/21 10:40:10;;;;;;;9.50;1.60;;;;;;;7.53;100.00;100184.19;7399041;19;20447;-47
2021/11/21 10:42:41;;;;;;;49.70;9.60;;;;;;;7.61;100.00;100189.69;7397147;19;20747;-45
2021/11/21 10:45:12;;;;;;;10.07;2.40;;;;;;;7.59;100.00;100192.16;7399908;19;20420;-45
2021/11/21 10:47:47;;;;;;;8.37;1.97;;;;;;;7.46;100.00;100197.56;7398143;19;20943;-44
2021/11/21 10:50:32;;;;;;;17.03;4.33;;;;;;;7.39;100.00;100201.56;7398877;19;20397;-50
2021/11/21 10:53:03;;;;;;;12.20;3.73;;;;;;;7.22;100.00;100196.50;7396380;19;20419;-44
2021/11/21 10:55:36;;;;;;;9.50;2.30;;;;;;;7.52;100.00;100192.69;7399424;19;20408;-43
2021/11/21 10:58:12;;;;;;;15.63;2.17;;;;;;;7.48;100.00;100204.53;7397119;19;20422;-44
2021/11/21 11:00:42;;;;;;;10.50;2.57;;;;;;;7.70;100.00;100198.66;7397196;19;20398;-44
2021/11/21 11:03:21;;;;;;;16.63;8.23;;;;;;;8.24;100.00;100192.41;7396658;19;20495;-44
2021/11/21 11:05:51;;;;;;;21.20;6.50;;;;;;;8.31;100.00;100197.81;7397392;19;20458;-47
2021/11/21 11:08:27;;;;;;;16.13;1.80;;;;;;;8.10;100.00;100209.81;7399448;19;20491;-45
2021/11/21 11:11:00;;;;;;;11.03;2.00;;;;;;;7.91;100.00;100207.25;7398155;19;20462;-50
2021/11/21 11:13:30;;;;;;;8.03;1.67;;;;;;;7.85;100.00;100218.16;7395703;19;20435;-44
2021/11/21 11:16:00;;;;;;;9.93;1.77;;;;;;;8.08;100.00;100215.69;7398838;19;20411;-45
2021/11/21 11:18:31;;;;;;;16.90;3.27;;;;;;;8.08;100.00;100231.09;7396460;19;20450;-51
2021/11/21 11:21:00;;;;;;;10.37;2.90;;;;;;;8.18;100.00;100225.56;7397635;19;20395;-48
2021/11/21 11:23:30;;;;;;;12.00;1.63;;;;;;;8.23;100.00;100233.47;7395836;19;20503;-45
2021/11/21 11:26:07;;;;;;;10.07;1.50;;;;;;;7.91;100.00;100233.84;7397840;19;20399;-46
2021/11/21 11:28:41;;;;;;;15.20;1.50;;;;;;;7.98;100.00;100232.41;7395904;19;20698;-48
2021/11/21 11:31:23;;;;;;;7.17;1.10;;;;;;;8.08;100.00;100232.00;7397788;19;20448;-46
2021/11/21 11:33:54;;;;;;;8.10;1.40;;;;;;;8.05;100.00;100243.84;7393966;19;20399;-44
2021/11/21 11:36:25;;;;;;;9.37;1.73;;;;;;;8.16;100.00;100234.03;7402186;19;20396;-45